createdAt,value
2022-08-18T00:02:17.573Z,133.95
2022-08-18T00:27:28.204Z,137.50
2022-08-18T00:52:33.884Z,136.45
2022-08-18T01:17:56.695Z,136.35
2022-08-18T01:43:04.358Z,135.48
2022-08-18T02:08:08.478Z,139.35
2022-08-18T02:33:13.416Z,136.82
2022-08-18T02:58:20.414Z,145.45
2022-08-18T03:23:30.109Z,135.75
2022-08-18T03:48:35.195Z,136.80
2022-08-18T04:13:39.318Z,137.32
2022-08-18T04:38:43.807Z,143.68
2022-08-18T05:03:50.430Z,138.90
2022-08-18T05:29:00.161Z,137.93
2022-08-18T05:54:38.471Z,137.75
2022-08-18T06:19:49.446Z,143.05
2022-08-18T06:44:54.909Z,157.18
2022-08-18T07:09:59.384Z,152.88
2022-08-18T07:35:07.113Z,151.25
2022-08-18T08:00:18.863Z,150.75
2022-08-18T08:25:46.420Z,146.05
2022-08-18T08:50:54.670Z,146.23
2022-08-18T09:16:13.744Z,146.73
2022-08-18T09:41:33.415Z,148.95
2022-08-18T10:06:42.927Z,149.13
2022-08-18T10:32:18.448Z,149.40
2022-08-18T10:57:24.903Z,145.15
2022-08-18T11:22:34.081Z,146.77
2022-08-18T11:47:40.039Z,145.50
2022-08-18T12:12:48.011Z,142.38
2022-08-18T12:38:00.219Z,145.10
2022-08-18T13:03:15.614Z,146.80
2022-08-18T13:28:19.897Z,151.13
2022-08-18T13:53:27.438Z,150.32
2022-08-18T14:18:31.639Z,153.30
2022-08-18T14:44:00.442Z,148.18
2022-08-18T15:09:00.670Z,150.48
2022-08-18T15:34:05.207Z,161.90
2022-08-18T15:59:10.771Z,147.65
2022-08-18T16:24:18.396Z,157.95
2022-08-18T16:49:22.523Z,144.90
2022-08-18T17:14:28.425Z,144.23
2022-08-18T17:39:34.481Z,145.93
2022-08-18T18:04:42.563Z,146.52
2022-08-18T18:29:53.060Z,138.73
2022-08-18T18:55:02.158Z,136.30
2022-08-18T19:20:07.896Z,138.38
2022-08-18T19:45:19.182Z,138.95
2022-08-18T20:10:32.598Z,140.10
2022-08-18T20:35:41.683Z,134.00
2022-08-18T21:00:53.539Z,139.45
2022-08-18T21:25:59.635Z,133.43
2022-08-18T21:51:03.967Z,135.35
2022-08-18T22:16:25.805Z,134.63
2022-08-18T22:41:30.435Z,138.40
2022-08-18T23:06:35.240Z,138.15
2022-08-18T23:31:40.077Z,136.13
2022-08-18T23:56:44.781Z,140.52
